Time;durP1;ratioP1;P1;durP2;ratioP2;P2;SDS_P1;SDS_P2;PMS_P1;PMS_P2;Temp;Humidity;BMP_temperature;BMP_pressure;BME280_temperature;BME280_humidity;BME280_pressure;Samples;Min_cycle;Max_cycle;Signal;HPM_P1;HPM_P2
2023/04/10 05:51:09;;;;;;;7.80;4.60;;;;;;;;;;5133813;27;20276;-78
2023/04/10 06:37:00;;;;;;;8.03;4.90;;;;;;;;;;5136954;27;20284;-80
2023/04/10 06:46:19;;;;;;;6.97;4.53;;;3.50;99.90;;;;;;5136316;27;20287;-80
2023/04/10 06:51:24;;;;;;;5.63;4.07;;;3.60;99.90;;;;;;5135278;27;20276;-79
2023/04/10 06:55:39;;;;;;;8.90;4.43;;;3.80;99.90;;;;;;5135693;27;20613;-79
2023/04/10 06:59:45;;;;;;;7.13;5.13;;;4.10;99.90;;;;;;5136865;27;20279;-80
2023/04/10 07:03:43;;;;;;;6.07;4.93;;;4.40;99.90;;;;;;5137440;27;20294;-80
2023/04/10 07:10:50;;;;;;;6.10;4.50;;;4.80;99.90;;;;;;5136320;27;20289;-80
2023/04/10 07:14:19;;;;;;;5.27;3.83;;;5.70;99.90;;;;;;5136919;27;20285;-82
2023/04/10 07:18:53;;;;;;;6.43;5.20;;;7.20;99.90;;;;;;5136263;27;20272;-79
2023/04/10 07:22:46;;;;;;;6.17;4.70;;;7.90;99.90;;;;;;5136686;27;20296;-79
2023/04/10 07:26:46;;;;;;;5.33;4.83;;;9.40;99.90;;;;;;5136307;27;20278;-79
2023/04/10 07:29:59;;;;;;;5.03;4.23;;;10.30;99.90;;;;;;5136443;27;20362;-79
2023/04/10 07:33:38;;;;;;;4.30;3.70;;;10.70;99.90;;;;;;5075172;28;20917;-78
2023/04/10 07:37:38;;;;;;;4.63;3.70;;;11.50;99.90;;;;;;5135508;27;20271;-80
2023/04/10 07:41:36;;;;;;;4.80;3.97;;;11.60;99.90;;;;;;5135385;27;20278;-79
2023/04/10 07:45:35;;;;;;;4.47;4.07;;;12.10;99.90;;;;;;5136073;27;20271;-79
2023/04/10 07:49:36;;;;;;;4.60;3.03;;;12.80;99.10;;;;;;5135643;27;20275;-79
2023/04/10 07:53:36;;;;;;;3.53;3.23;;;13.20;99.30;;;;;;5134863;27;20283;-80
2023/04/10 07:57:35;;;;;;;4.07;3.40;;;13.60;97.00;;;;;;5133053;27;20604;-78
2023/04/10 08:01:32;;;;;;;3.53;3.20;;;13.50;93.90;;;;;;5132736;27;20748;-79
2023/04/10 08:03:57;;;;;;;3.63;2.93;;;13.50;94.10;;;;;;5129735;28;20216;-80
2023/04/10 08:06:23;;;;;;;2.90;2.47;;;13.70;93.70;;;;;;5134859;28;20171;-80
2023/04/10 08:08:51;;;;;;;6.37;2.60;;;13.90;91.10;;;;;;5134875;28;20167;-80
2023/04/10 08:11:31;;;;;;;2.53;2.33;;;14.20;85.70;;;;;;5134305;28;20269;-80
2023/04/10 08:14:00;;;;;;;2.97;2.40;;;14.20;84.10;;;;;;5135727;27;20544;-80
2023/04/10 08:16:28;;;;;;;3.00;2.70;;;14.30;80.10;;;;;;5135643;27;20167;-79
2023/04/10 08:18:55;;;;;;;2.50;2.30;;;14.50;82.50;;;;;;5134337;28;20179;-80
2023/04/10 08:21:22;;;;;;;16.17;4.50;;;15.20;81.10;;;;;;5134774;28;20205;-81
2023/04/10 08:23:50;;;;;;;2.67;2.40;;;15.90;75.90;;;;;;5135889;27;20179;-80
2023/04/10 08:26:16;;;;;;;2.90;2.60;;;16.00;71.70;;;;;;5135574;27;20247;-80
2023/04/10 08:28:46;;;;;;;2.80;2.57;;;16.10;77.30;;;;;;5135134;27;20167;-81
2023/04/10 08:31:12;;;;;;;3.80;2.50;;;16.30;75.10;;;;;;5133719;28;20180;-78
2023/04/10 08:33:38;;;;;;;3.20;2.57;;;16.50;74.40;;;;;;5131795;27;20195;-77
2023/04/10 08:36:05;;;;;;;2.77;2.50;;;16.10;71.30;;;;;;5131246;27;20256;-77
2023/04/10 08:38:30;;;;;;;2.67;2.47;;;16.00;72.20;;;;;;5131226;27;20172;-77
2023/04/10 08:40:57;;;;;;;2.57;2.37;;;16.40;72.00;;;;;;5130287;28;20233;-77
2023/04/10 08:43:22;;;;;;;2.73;2.40;;;17.00;70.40;;;;;;5132298;27;20192;-78
2023/04/10 08:45:50;;;;;;;2.63;2.43;;;17.70;69.70;;;;;;5131512;27;20175;-77
2023/04/10 08:48:18;;;;;;;2.80;2.60;;;17.60;65.50;;;;;;5131278;27;20169;-77
2023/04/10 08:50:45;;;;;;;2.53;2.33;;;17.40;65.30;;;;;;5129796;28;20205;-78
2023/04/10 08:53:13;;;;;;;3.20;2.70;;;17.00;63.50;;;;;;5130457;28;20202;-78
2023/04/10 08:55:39;;;;;;;2.47;2.27;;;16.90;66.60;;;;;;5131802;28;20195;-79
2023/04/10 08:58:06;;;;;;;2.47;2.23;;;16.30;68.00;;;;;;5132655;27;20175;-78
2023/04/10 09:00:37;;;;;;;2.60;2.40;;;16.50;68.70;;;;;;5132040;27;20315;-80
2023/04/10 09:03:04;;;;;;;2.50;2.30;;;16.60;66.10;;;;;;5133576;28;20200;-80
2023/04/10 09:05:30;;;;;;;2.90;2.60;;;16.40;65.90;;;;;;5132172;28;20282;-78
2023/04/10 09:07:56;;;;;;;3.33;2.37;;;16.30;66.90;;;;;;5135673;27;20167;-80
2023/04/10 09:10:22;;;;;;;2.57;2.37;;;15.60;63.80;;;;;;5136594;28;20635;-81
2023/04/10 09:12:48;;;;;;;2.47;2.23;;;15.70;71.80;;;;;;5126245;27;20209;-82
2023/04/10 09:15:14;;;;;;;2.70;2.47;;;15.60;62.90;;;;;;5122485;28;20576;-80
2023/04/10 09:18:01;;;;;;;2.47;2.27;;;15.40;66.30;;;;;;5119813;28;20186;-80
2023/04/10 09:20:31;;;;;;;2.30;2.10;;;15.30;71.20;;;;;;5119124;28;20199;-80
2023/04/10 09:22:57;;;;;;;2.50;2.30;;;15.40;62.50;;;;;;5118311;28;20665;-81
2023/04/10 09:25:37;;;;;;;2.30;2.10;;;14.90;68.50;;;;;;5119062;28;20175;-80
2023/04/10 09:28:05;;;;;;;1.70;1.60;;;15.10;63.50;;;;;;5118260;28;20176;-79
2023/04/10 09:30:38;;;;;;;2.27;2.07;;;15.40;61.70;;;;;;5119503;28;20179;-79
2023/04/10 09:33:21;;;;;;;2.10;1.90;;;15.80;65.40;;;;;;5119891;28;20203;-80
2023/04/10 09:35:46;;;;;;;1.70;1.60;;;15.80;59.60;;;;;;5120414;28;20212;-82
2023/04/10 09:38:17;;;;;;;2.20;2.00;;;15.80;58.50;;;;;;5121400;28;20180;-83
2023/04/10 09:40:44;;;;;;;1.90;1.80;;;15.50;59.40;;;;;;5121935;28;20195;-80
2023/04/10 09:43:24;;;;;;;1.97;1.87;;;15.60;59.80;;;;;;5119394;28;20198;-80
2023/04/10 09:45:56;;;;;;;1.63;1.53;;;15.70;56.90;;;;;;5121908;28;20563;-80
2023/04/10 09:48:23;;;;;;;2.20;2.00;;;15.70;58.80;;;;;;5119199;28;20596;-82
2023/04/10 09:50:48;;;;;;;1.90;1.70;;;15.80;59.40;;;;;;5117048;28;20193;-78
2023/04/10 09:53:19;;;;;;;5.10;2.10;;;16.00;58.50;;;;;;5119517;28;20196;-80
2023/04/10 09:55:47;;;;;;;1.80;1.70;;;16.50;59.10;;;;;;5120771;28;20190;-84
2023/04/10 09:58:14;;;;;;;2.07;1.87;;;16.50;56.00;;;;;;5119559;28;20175;-82
2023/04/10 10:00:47;;;;;;;6.60;2.07;;;16.20;58.70;;;;;;5117829;28;20222;-81
2023/04/10 10:03:15;;;;;;;2.20;2.00;;;15.80;56.30;;;;;;5119851;28;20202;-81
2023/04/10 10:05:47;;;;;;;2.20;2.00;;;15.60;57.30;;;;;;5118708;28;20186;-82
2023/04/10 10:08:14;;;;;;;1.80;1.70;;;16.10;59.10;;;;;;5120204;28;20174;-82
2023/04/10 10:11:02;;;;;;;2.73;2.43;;;16.50;58.90;;;;;;5118238;28;20180;-80
2023/04/10 10:13:34;;;;;;;2.20;1.70;;;16.90;63.00;;;;;;5120712;28;20196;-81
2023/04/10 10:16:18;;;;;;;2.20;2.00;;;17.40;60.40;;;;;;5120756;28;20156;-80
2023/04/10 10:19:05;;;;;;;2.00;1.80;;;17.20;54.70;;;;;;5119740;28;20160;-80
2023/04/10 10:21:33;;;;;;;1.90;1.73;;;16.90;58.10;;;;;;5118961;28;20176;-83
2023/04/10 10:24:01;;;;;;;2.20;2.00;;;16.70;56.40;;;;;;5117622;28;20376;-83
2023/04/10 10:26:29;;;;;;;1.90;1.80;;;16.40;56.50;;;;;;5119457;28;20503;-81
2023/04/10 10:28:56;;;;;;;1.80;1.70;;;16.30;56.90;;;;;;5117494;28;20239;-81
2023/04/10 10:31:24;;;;;;;2.10;1.90;;;16.30;57.10;;;;;;5119187;28;20653;-81
2023/04/10 10:33:53;;;;;;;1.70;1.60;;;16.50;58.20;;;;;;5116567;28;20191;-78
2023/04/10 10:36:21;;;;;;;2.40;2.20;;;16.80;57.70;;;;;;5114755;28;20183;-77
2023/04/10 10:39:12;;;;;;;1.90;1.60;;;17.10;58.20;;;;;;5116599;28;20164;-78
2023/04/10 10:41:43;;;;;;;2.17;1.97;;;17.20;56.20;;;;;;5116763;28;20250;-79
2023/04/10 10:44:26;;;;;;;2.03;1.83;;;17.00;54.90;;;;;;5120317;28;20580;-80
2023/04/10 10:47:06;;;;;;;1.57;1.47;;;16.60;54.40;;;;;;5116760;28;20175;-79
2023/04/10 10:49:58;;;;;;;2.90;1.70;;;16.50;58.80;;;;;;5117964;28;20707;-79
2023/04/10 10:52:36;;;;;;;4.57;3.80;;;17.20;57.60;;;;;;5111610;28;20186;-79
2023/04/10 10:55:20;;;;;;;2.63;2.43;;;17.40;58.90;;;;;;5117910;28;20172;-80
2023/04/10 10:57:47;;;;;;;1.87;1.77;;;17.90;58.30;;;;;;5119662;28;20175;-79
2023/04/10 11:00:15;;;;;;;2.20;1.80;;;18.10;54.70;;;;;;5127168;28;20203;-79
2023/04/10 11:02:40;;;;;;;2.20;1.80;;;18.30;56.60;;;;;;5125765;28;20188;-79
2023/04/10 11:05:06;;;;;;;3.70;1.70;;;18.30;53.60;;;;;;5122249;28;20175;-79
2023/04/10 11:07:57;;;;;;;1.77;1.67;;;18.20;56.40;;;;;;5118912;28;20172;-79
2023/04/10 11:11:01;;;;;;;2.17;1.97;;;18.10;56.20;;;;;;5117179;28;20187;-79
2023/04/10 11:13:27;;;;;;;2.60;1.80;;;17.90;53.80;;;;;;5116904;28;20603;-79
2023/04/10 11:15:57;;;;;;;2.00;1.90;;;17.90;56.40;;;;;;5118443;28;20674;-79
2023/04/10 11:19:06;;;;;;;1.80;1.70;;;18.10;54.90;;;;;;5117966;28;20606;-80
2023/04/10 11:21:33;;;;;;;1.80;1.70;;;18.20;54.10;;;;;;5088339;28;20245;-80
2023/04/10 11:23:59;;;;;;;2.10;1.90;;;18.30;53.20;;;;;;5116522;28;20235;-79
2023/04/10 11:26:34;;;;;;;2.07;1.87;;;18.40;53.40;;;;;;5118074;28;20196;-79
2023/04/10 11:29:00;;;;;;;2.30;2.10;;;18.60;55.90;;;;;;5117545;28;20177;-81
2023/04/10 11:31:27;;;;;;;4.00;2.00;;;18.80;54.90;;;;;;5117740;28;20177;-80
2023/04/10 11:33:56;;;;;;;1.80;1.70;;;18.80;56.00;;;;;;5116040;28;20200;-80
2023/04/10 11:36:22;;;;;;;1.77;1.67;;;19.20;55.60;;;;;;5116709;28;20181;-80
2023/04/10 11:39:04;;;;;;;1.97;1.77;;;19.70;55.60;;;;;;5117776;28;20519;-80
2023/04/10 11:41:38;;;;;;;20.23;8.07;;;19.90;52.60;;;;;;5115767;28;20540;-82
2023/04/10 11:44:11;;;;;;;2.47;2.27;;;19.90;51.70;;;;;;5117738;28;20196;-79
2023/04/10 11:46:42;;;;;;;1.67;1.57;;;19.90;53.60;;;;;;5118013;28;20171;-80
2023/04/10 11:49:10;;;;;;;2.20;1.90;;;20.10;56.00;;;;;;5116882;28;20171;-81
2023/04/10 11:51:39;;;;;;;1.70;1.60;;;20.10;52.40;;;;;;5115992;28;20542;-79
2023/04/10 11:54:09;;;;;;;3.20;1.83;;;20.00;50.60;;;;;;5117934;28;20200;-78
2023/04/10 11:56:40;;;;;;;1.83;1.73;;;19.80;55.20;;;;;;5117550;28;20187;-79
2023/04/10 11:59:09;;;;;;;5.70;1.80;;;19.60;52.40;;;;;;5115800;28;20198;-80
2023/04/10 12:01:36;;;;;;;2.07;1.50;;;19.90;53.50;;;;;;5116457;28;20193;-81
2023/04/10 12:04:02;;;;;;;3.13;1.90;;;20.70;51.90;;;;;;5117213;28;20222;-79
2023/04/10 12:06:28;;;;;;;3.43;1.70;;;20.70;51.60;;;;;;5114877;28;20168;-78
2023/04/10 12:08:54;;;;;;;1.60;1.50;;;20.80;50.40;;;;;;5114375;28;20175;-77
2023/04/10 12:11:21;;;;;;;1.60;1.50;;;20.70;50.60;;;;;;5112587;28;20189;-77
2023/04/10 12:13:47;;;;;;;2.00;1.63;;;21.00;51.10;;;;;;5114767;28;20198;-77
2023/04/10 12:16:13;;;;;;;2.00;1.90;;;20.90;51.30;;;;;;5115719;28;20206;-78
2023/04/10 12:18:39;;;;;;;3.63;2.10;;;20.80;50.80;;;;;;5117919;28;20174;-77
2023/04/10 12:21:05;;;;;;;2.80;2.50;;;21.40;51.30;;;;;;5117888;28;20662;-79
2023/04/10 12:23:32;;;;;;;1.70;1.60;;;21.90;49.90;;;;;;5119016;28;20183;-78
2023/04/10 12:26:16;;;;;;;1.70;1.60;;;21.60;47.60;;;;;;5119212;28;20171;-79
2023/04/10 12:29:02;;;;;;;1.70;1.60;;;21.10;48.60;;;;;;5117241;28;20174;-79
2023/04/10 12:31:33;;;;;;;1.60;1.50;;;21.00;50.10;;;;;;5116648;28;20179;-79
2023/04/10 12:34:00;;;;;;;1.90;1.70;;;20.90;46.40;;;;;;5118661;28;20205;-79
2023/04/10 12:36:31;;;;;;;1.87;1.63;;;21.20;49.70;;;;;;5118873;28;20167;-79
2023/04/10 12:39:01;;;;;;;1.60;1.50;;;22.00;50.70;;;;;;5117655;28;20177;-79
2023/04/10 12:41:32;;;;;;;2.60;1.80;;;22.00;48.50;;;;;;5117830;28;20202;-79
2023/04/10 12:44:12;;;;;;;1.83;1.73;;;22.10;47.10;;;;;;5118412;28;20205;-80
2023/04/10 12:46:38;;;;;;;2.50;1.23;;;21.50;46.50;;;;;;5118709;28;20157;-80
2023/04/10 12:49:20;;;;;;;2.90;1.77;;;21.20;47.00;;;;;;5122823;28;20588;-80
2023/04/10 12:51:50;;;;;;;1.30;1.20;;;21.60;46.60;;;;;;5119694;28;20172;-80
2023/04/10 12:54:32;;;;;;;1.40;1.30;;;21.90;45.00;;;;;;5120828;28;20209;-80
2023/04/10 12:56:58;;;;;;;1.70;1.50;;;21.80;45.90;;;;;;5122822;28;20187;-80
2023/04/10 12:59:28;;;;;;;1.60;1.50;;;21.80;43.40;;;;;;5125627;28;20197;-79
2023/04/10 13:01:54;;;;;;;1.30;1.20;;;21.20;44.40;;;;;;5126425;28;20181;-78
2023/04/10 13:04:20;;;;;;;1.60;1.50;;;20.80;45.20;;;;;;5124985;28;20195;-78
2023/04/10 13:06:47;;;;;;;2.30;2.07;;;20.80;43.30;;;;;;5118397;28;20172;-78
2023/04/10 13:09:14;;;;;;;2.97;2.70;;;20.70;45.80;;;;;;5118734;28;20171;-78
2023/04/10 13:11:40;;;;;;;2.40;2.13;;;21.00;46.90;;;;;;5118450;28;20179;-78
2023/04/10 13:14:07;;;;;;;1.70;1.60;;;22.00;49.30;;;;;;5118693;28;20225;-78
2023/04/10 13:16:33;;;;;;;1.47;1.37;;;22.50;46.50;;;;;;5119267;28;20182;-78
2023/04/10 13:18:59;;;;;;;1.40;1.30;;;22.90;44.90;;;;;;5119404;28;20167;-78
2023/04/10 13:21:27;;;;;;;1.40;1.30;;;21.80;43.80;;;;;;5118703;28;20195;-78
2023/04/10 13:23:56;;;;;;;1.60;1.50;;;22.40;44.60;;;;;;5119258;28;20234;-79
2023/04/10 13:26:22;;;;;;;1.93;1.00;;;22.50;43.30;;;;;;5118044;28;20168;-77
2023/04/10 13:28:48;;;;;;;1.47;1.33;;;22.70;47.00;;;;;;5115378;28;20179;-76
2023/04/10 13:31:14;;;;;;;1.33;1.23;;;23.40;45.60;;;;;;5115775;28;20180;-77
2023/04/10 13:33:45;;;;;;;1.93;1.40;;;23.50;43.40;;;;;;5116695;28;20680;-77
2023/04/10 13:36:10;;;;;;;1.33;1.23;;;23.90;46.60;;;;;;5117872;28;20262;-77
2023/04/10 13:38:36;;;;;;;1.77;1.50;;;24.50;42.00;;;;;;5117010;28;20232;-78
2023/04/10 13:41:01;;;;;;;1.10;1.00;;;24.40;40.80;;;;;;5116708;28;20566;-77
2023/04/10 13:43:27;;;;;;;1.43;1.33;;;24.00;42.50;;;;;;5116907;28;20717;-77
2023/04/10 13:45:55;;;;;;;1.27;1.17;;;23.50;41.80;;;;;;5118582;28;20504;-78
2023/04/10 13:48:21;;;;;;;1.40;1.20;;;23.60;44.10;;;;;;5118744;28;20264;-77
2023/04/10 13:50:46;;;;;;;1.40;1.30;;;24.30;43.00;;;;;;5117398;28;20600;-77
2023/04/10 13:53:12;;;;;;;1.23;1.10;;;24.60;40.50;;;;;;5115557;28;20203;-77
2023/04/10 13:55:42;;;;;;;1.23;1.13;;;23.90;38.30;;;;;;5116923;28;20178;-77
2023/04/10 13:58:10;;;;;;;1.30;1.20;;;23.90;39.30;;;;;;5118727;28;20641;-78
2023/04/10 14:00:36;;;;;;;1.40;1.30;;;23.60;39.70;;;;;;5118146;28;20564;-78
2023/04/10 14:03:02;;;;;;;1.40;1.10;;;23.90;40.90;;;;;;5118370;28;20192;-78
2023/04/10 14:05:27;;;;;;;1.33;1.23;;;23.90;40.70;;;;;;5116845;28;20182;-77
2023/04/10 14:07:55;;;;;;;1.30;1.20;;;23.60;39.40;;;;;;5115984;28;20176;-77
2023/04/10 14:10:22;;;;;;;1.93;1.73;;;23.40;39.80;;;;;;5117288;28;20262;-78
2023/04/10 14:12:47;;;;;;;1.53;1.40;;;23.70;39.00;;;;;;5117383;28;20226;-77
2023/04/10 14:15:13;;;;;;;1.57;1.47;;;23.80;42.10;;;;;;5116506;28;20583;-78
2023/04/10 14:17:39;;;;;;;1.10;1.00;;;23.70;41.00;;;;;;5117429;28;20537;-78
2023/04/10 14:20:05;;;;;;;1.43;1.23;;;23.90;42.00;;;;;;5115902;28;20206;-78
2023/04/10 14:22:31;;;;;;;1.40;1.20;;;24.10;41.10;;;;;;5117889;28;20233;-78
2023/04/10 14:24:56;;;;;;;1.10;1.00;;;24.40;39.60;;;;;;5116126;28;20174;-78
2023/04/10 14:27:22;;;;;;;1.23;1.13;;;24.50;39.50;;;;;;5117451;28;20168;-78
2023/04/10 14:29:48;;;;;;;1.27;1.17;;;24.20;41.30;;;;;;5117865;28;20572;-79
2023/04/10 14:32:14;;;;;;;1.77;1.60;;;24.10;40.00;;;;;;5116391;28;20205;-79
2023/04/10 14:34:39;;;;;;;1.30;1.20;;;23.80;43.80;;;;;;5116486;28;20637;-79
2023/04/10 14:37:06;;;;;;;2.10;1.50;;;23.20;41.70;;;;;;5117894;28;20176;-79
2023/04/10 14:39:32;;;;;;;3.60;1.53;;;21.70;41.90;;;;;;5117747;28;20195;-79
2023/04/10 14:41:58;;;;;;;1.47;1.33;;;21.50;47.10;;;;;;5117675;28;20164;-79
2023/04/10 14:44:24;;;;;;;2.03;0.90;;;22.10;45.10;;;;;;5117322;28;20187;-78
2023/04/10 14:46:50;;;;;;;4.03;1.60;;;22.60;41.90;;;;;;5116482;28;20178;-78
2023/04/10 14:49:15;;;;;;;1.77;1.67;;;22.40;43.10;;;;;;5115998;28;20221;-78
2023/04/10 14:51:44;;;;;;;3.90;1.83;;;21.60;42.00;;;;;;5117631;28;20183;-79
2023/04/10 14:54:10;;;;;;;1.67;1.57;;;20.80;47.30;;;;;;5115993;28;20275;-78
2023/04/10 14:56:36;;;;;;;5.97;2.17;;;20.60;44.80;;;;;;5117632;28;20216;-78
2023/04/10 14:59:02;;;;;;;4.03;1.83;;;20.30;44.90;;;;;;5115961;28;20182;-78
2023/04/10 15:01:27;;;;;;;1.50;1.40;;;19.90;45.10;;;;;;5116540;28;20213;-78
2023/04/10 15:03:53;;;;;;;1.50;1.40;;;19.40;45.40;;;;;;5117146;28;20205;-78
2023/04/10 15:06:19;;;;;;;1.50;1.40;;;19.40;46.40;;;;;;5116491;28;20173;-78
2023/04/10 15:08:44;;;;;;;1.30;1.20;;;19.60;45.20;;;;;;5114828;28;20179;-78
2023/04/10 15:11:10;;;;;;;2.73;1.63;;;19.20;44.30;;;;;;5116514;28;20643;-78
2023/04/10 15:13:37;;;;;;;1.37;1.27;;;19.00;44.90;;;;;;5115520;28;20206;-78
2023/04/10 15:16:03;;;;;;;1.83;1.70;;;19.00;45.50;;;;;;5115457;28;20547;-78
2023/04/10 15:18:29;;;;;;;1.47;1.37;;;18.90;45.00;;;;;;5115539;28;20176;-79
2023/04/10 15:20:55;;;;;;;1.40;1.30;;;18.30;46.60;;;;;;5115745;28;20200;-78
2023/04/10 15:23:21;;;;;;;2.03;1.30;;;18.10;48.10;;;;;;5115660;28;20199;-78
2023/04/10 15:25:46;;;;;;;1.50;1.40;;;17.90;46.30;;;;;;5116376;28;20168;-81
2023/04/10 15:28:12;;;;;;;2.03;1.60;;;17.90;48.60;;;;;;5117439;28;20175;-76
2023/04/10 15:30:41;;;;;;;1.77;1.53;;;17.80;48.80;;;;;;5118740;28;20203;-76
2023/04/10 15:33:07;;;;;;;1.97;1.70;;;17.60;49.30;;;;;;5120166;28;20192;-76
2023/04/10 15:35:35;;;;;;;1.87;1.60;;;17.40;49.40;;;;;;5121209;28;20205;-77
2023/04/10 15:38:04;;;;;;;1.73;1.20;;;17.20;48.90;;;;;;5119663;28;20178;-77
2023/04/10 15:40:30;;;;;;;1.47;1.37;;;17.20;51.20;;;;;;5120158;28;20195;-78
2023/04/10 15:42:56;;;;;;;132.27;85.50;;;17.10;49.50;;;;;;5121775;28;20198;-79
2023/04/10 15:45:21;;;;;;;5.20;4.70;;;17.00;49.70;;;;;;5121384;28;20572;-77
2023/04/10 15:47:47;;;;;;;2.07;1.87;;;16.90;48.30;;;;;;5120167;28;20177;-78
2023/04/10 15:50:13;;;;;;;3.03;2.70;;;16.80;51.90;;;;;;5122008;28;20197;-79
2023/04/10 15:52:39;;;;;;;5.60;1.93;;;16.70;52.40;;;;;;5122849;28;20214;-79
2023/04/10 15:55:05;;;;;;;1.90;1.60;;;16.60;52.40;;;;;;5121310;28;20190;-78
2023/04/10 15:57:31;;;;;;;1.50;1.30;;;16.50;50.20;;;;;;5121902;28;20190;-79
2023/04/10 15:59:59;;;;;;;1.80;1.57;;;16.40;52.50;;;;;;5118129;28;20220;-80
2023/04/10 16:02:25;;;;;;;3.47;2.33;;;16.30;51.20;;;;;;5117855;28;20174;-80
2023/04/10 16:04:51;;;;;;;1.70;1.50;;;16.20;50.20;;;;;;5116790;28;20198;-81
2023/04/10 16:07:19;;;;;;;1.43;1.20;;;16.10;51.50;;;;;;5117766;28;20257;-80
2023/04/10 16:09:45;;;;;;;1.77;1.67;;;16.00;50.20;;;;;;5117986;28;20180;-80
2023/04/10 16:12:12;;;;;;;3.60;1.30;;;15.90;51.30;;;;;;5117673;28;20180;-79
2023/04/10 16:14:38;;;;;;;1.40;1.10;;;15.80;50.10;;;;;;5116381;28;20212;-78
2023/04/10 16:17:03;;;;;;;0.90;0.80;;;15.60;48.10;;;;;;5117101;28;20624;-79
2023/04/10 16:19:30;;;;;;;1.00;0.90;;;15.50;49.30;;;;;;5116775;28;20180;-78
2023/04/10 16:21:56;;;;;;;1.20;0.87;;;15.30;48.20;;;;;;5117461;28;20195;-78
2023/04/10 16:24:22;;;;;;;0.90;0.80;;;15.30;49.10;;;;;;5121178;28;20271;-78
2023/04/10 16:26:48;;;;;;;1.57;1.30;;;15.20;48.80;;;;;;5119207;28;20622;-78
2023/04/10 16:29:14;;;;;;;1.57;1.40;;;15.10;48.50;;;;;;5120592;28;20182;-78
2023/04/10 16:31:40;;;;;;;2.00;1.40;;;15.10;49.50;;;;;;5118435;28;20187;-78
2023/04/10 16:34:06;;;;;;;1.20;1.10;;;15.00;49.00;;;;;;5120227;28;20192;-79
2023/04/10 16:36:32;;;;;;;1.27;1.00;;;14.90;48.20;;;;;;5118820;28;20176;-77
2023/04/10 16:38:58;;;;;;;0.87;0.80;;;14.90;50.50;;;;;;5119951;28;20258;-79
2023/04/10 16:41:23;;;;;;;1.17;1.07;;;14.90;49.80;;;;;;5117467;28;20384;-79
2023/04/10 16:43:49;;;;;;;2.17;1.97;;;14.80;49.20;;;;;;5118336;28;20194;-78
2023/04/10 16:46:15;;;;;;;1.50;1.40;;;14.90;49.80;;;;;;5119490;28;20640;-78
2023/04/10 16:48:40;;;;;;;1.30;1.20;;;14.80;50.70;;;;;;5128783;28;20257;-78
2023/04/10 16:51:13;;;;;;;1.27;1.17;;;14.80;51.00;;;;;;5119691;28;20625;-77
2023/04/10 16:53:39;;;;;;;1.50;1.10;;;14.80;52.90;;;;;;5120688;28;20191;-79
2023/04/10 16:56:04;;;;;;;2.00;1.20;;;14.70;51.50;;;;;;5122186;28;20235;-79
2023/04/10 16:58:31;;;;;;;0.97;0.87;;;14.60;49.90;;;;;;5122491;28;20179;-79
2023/04/10 17:00:57;;;;;;;2.33;1.20;;;14.60;52.80;;;;;;5120582;28;20211;-79
2023/04/10 17:03:23;;;;;;;2.00;1.33;;;14.60;56.60;;;;;;5121329;28;20191;-79
2023/04/10 17:05:48;;;;;;;1.70;1.40;;;14.50;51.00;;;;;;5122398;28;20554;-80
2023/04/10 17:08:14;;;;;;;3.77;1.30;;;14.40;50.30;;;;;;5122761;28;20172;-80
2023/04/10 17:10:40;;;;;;;1.50;1.30;;;14.30;52.40;;;;;;5122569;28;20629;-79
2023/04/10 17:13:05;;;;;;;1.73;1.37;;;14.20;52.50;;;;;;5122257;28;20232;-79
2023/04/10 17:15:31;;;;;;;2.50;1.60;;;14.20;50.50;;;;;;5125668;28;20191;-79
2023/04/10 17:17:57;;;;;;;1.93;1.50;;;14.10;51.80;;;;;;5134428;28;20203;-79
2023/04/10 17:20:22;;;;;;;2.47;1.80;;;14.00;50.60;;;;;;5136694;28;20203;-79
2023/04/10 17:22:48;;;;;;;4.17;1.80;;;14.00;51.60;;;;;;5136774;27;20195;-79
